sensor_id;sensor_type;location;lat;lon;timestamp;temperature;humidity
74657;DHT22;63185;45.642;13.764;2023-06-22T00:00:40;27.50;61.80
74657;DHT22;63185;45.642;13.764;2023-06-22T00:03:07;27.40;62.00
74657;DHT22;63185;45.642;13.764;2023-06-22T00:05:33;27.40;62.30
74657;DHT22;63185;45.642;13.764;2023-06-22T00:08:01;27.40;62.10
74657;DHT22;63185;45.642;13.764;2023-06-22T00:10:27;27.40;62.10
74657;DHT22;63185;45.642;13.764;2023-06-22T00:12:52;27.40;62.10
74657;DHT22;63185;45.642;13.764;2023-06-22T00:15:18;27.30;62.10
74657;DHT22;63185;45.642;13.764;2023-06-22T00:17:44;27.30;61.70
74657;DHT22;63185;45.642;13.764;2023-06-22T00:20:09;27.40;61.60
74657;DHT22;63185;45.642;13.764;2023-06-22T00:22:35;27.30;61.60
74657;DHT22;63185;45.642;13.764;2023-06-22T00:25:05;27.30;61.50
74657;DHT22;63185;45.642;13.764;2023-06-22T00:27:31;27.20;61.80
74657;DHT22;63185;45.642;13.764;2023-06-22T00:29:57;27.20;61.70
74657;DHT22;63185;45.642;13.764;2023-06-22T00:32:22;27.20;61.90
74657;DHT22;63185;45.642;13.764;2023-06-22T00:34:48;27.20;62.30
74657;DHT22;63185;45.642;13.764;2023-06-22T00:37:13;27.10;63.00
74657;DHT22;63185;45.642;13.764;2023-06-22T00:39:39;27.10;63.50
74657;DHT22;63185;45.642;13.764;2023-06-22T00:42:04;27.20;63.50
74657;DHT22;63185;45.642;13.764;2023-06-22T00:44:30;27.10;63.60
74657;DHT22;63185;45.642;13.764;2023-06-22T00:46:56;27.10;63.70
74657;DHT22;63185;45.642;13.764;2023-06-22T00:49:21;27.10;63.80
74657;DHT22;63185;45.642;13.764;2023-06-22T00:51:47;27.10;63.80
74657;DHT22;63185;45.642;13.764;2023-06-22T00:54:13;27.00;63.90
74657;DHT22;63185;45.642;13.764;2023-06-22T00:56:39;27.00;64.00
74657;DHT22;63185;45.642;13.764;2023-06-22T00:59:05;27.00;63.80
74657;DHT22;63185;45.642;13.764;2023-06-22T01:01:30;27.00;63.60
74657;DHT22;63185;45.642;13.764;2023-06-22T01:03:56;26.90;63.50
74657;DHT22;63185;45.642;13.764;2023-06-22T01:06:25;26.90;63.30
74657;DHT22;63185;45.642;13.764;2023-06-22T01:11:54;27.00;63.00
74657;DHT22;63185;45.642;13.764;2023-06-22T01:14:24;27.00;62.90
74657;DHT22;63185;45.642;13.764;2023-06-22T01:16:53;27.00;62.30
74657;DHT22;63185;45.642;13.764;2023-06-22T01:22:07;26.90;62.50
74657;DHT22;63185;45.642;13.764;2023-06-22T01:24:42;26.90;62.60
74657;DHT22;63185;45.642;13.764;2023-06-22T01:29:57;26.90;63.10
74657;DHT22;63185;45.642;13.764;2023-06-22T01:32:29;26.80;63.00
74657;DHT22;63185;45.642;13.764;2023-06-22T01:34:56;26.80;63.30
74657;DHT22;63185;45.642;13.764;2023-06-22T01:37:22;26.90;63.40
74657;DHT22;63185;45.642;13.764;2023-06-22T01:39:48;26.80;63.50
74657;DHT22;63185;45.642;13.764;2023-06-22T01:42:14;26.80;63.50
74657;DHT22;63185;45.642;13.764;2023-06-22T01:44:40;26.90;63.40
74657;DHT22;63185;45.642;13.764;2023-06-22T01:47:08;26.80;63.40
74657;DHT22;63185;45.642;13.764;2023-06-22T01:49:33;26.80;63.10
74657;DHT22;63185;45.642;13.764;2023-06-22T01:51:59;26.90;62.90
74657;DHT22;63185;45.642;13.764;2023-06-22T01:54:24;26.90;62.80
74657;DHT22;63185;45.642;13.764;2023-06-22T01:56:50;26.80;62.70
74657;DHT22;63185;45.642;13.764;2023-06-22T01:59:34;26.90;62.60
74657;DHT22;63185;45.642;13.764;2023-06-22T02:02:09;26.90;62.90
74657;DHT22;63185;45.642;13.764;2023-06-22T02:04:36;26.90;63.30
74657;DHT22;63185;45.642;13.764;2023-06-22T02:07:04;26.90;63.40
74657;DHT22;63185;45.642;13.764;2023-06-22T02:09:31;26.80;63.30
74657;DHT22;63185;45.642;13.764;2023-06-22T02:11:57;26.70;63.20
74657;DHT22;63185;45.642;13.764;2023-06-22T02:14:23;26.70;63.00
74657;DHT22;63185;45.642;13.764;2023-06-22T02:16:50;26.70;62.90
74657;DHT22;63185;45.642;13.764;2023-06-22T02:19:16;26.70;63.00
74657;DHT22;63185;45.642;13.764;2023-06-22T02:21:44;26.70;62.90
74657;DHT22;63185;45.642;13.764;2023-06-22T02:24:10;26.60;62.70
74657;DHT22;63185;45.642;13.764;2023-06-22T02:26:35;26.70;62.90
74657;DHT22;63185;45.642;13.764;2023-06-22T02:29:02;26.60;62.40
74657;DHT22;63185;45.642;13.764;2023-06-22T02:31:27;26.70;62.20
74657;DHT22;63185;45.642;13.764;2023-06-22T02:33:58;26.70;62.30
74657;DHT22;63185;45.642;13.764;2023-06-22T02:36:24;26.60;62.50
74657;DHT22;63185;45.642;13.764;2023-06-22T02:38:52;26.60;62.50
74657;DHT22;63185;45.642;13.764;2023-06-22T02:41:17;26.70;62.80
74657;DHT22;63185;45.642;13.764;2023-06-22T02:43:44;26.60;63.00
74657;DHT22;63185;45.642;13.764;2023-06-22T02:46:10;26.60;63.00
74657;DHT22;63185;45.642;13.764;2023-06-22T02:48:36;26.60;63.30
74657;DHT22;63185;45.642;13.764;2023-06-22T02:51:02;26.60;63.30
74657;DHT22;63185;45.642;13.764;2023-06-22T02:53:27;26.50;63.40
74657;DHT22;63185;45.642;13.764;2023-06-22T02:55:53;26.50;63.40
74657;DHT22;63185;45.642;13.764;2023-06-22T02:58:18;26.50;63.40
74657;DHT22;63185;45.642;13.764;2023-06-22T03:00:44;26.50;63.50
74657;DHT22;63185;45.642;13.764;2023-06-22T03:03:09;26.50;62.90
74657;DHT22;63185;45.642;13.764;2023-06-22T03:05:35;26.50;63.10
74657;DHT22;63185;45.642;13.764;2023-06-22T03:08:00;26.40;63.00
74657;DHT22;63185;45.642;13.764;2023-06-22T03:10:26;26.40;62.80
74657;DHT22;63185;45.642;13.764;2023-06-22T03:12:51;26.40;62.00
74657;DHT22;63185;45.642;13.764;2023-06-22T03:15:17;26.50;61.80
74657;DHT22;63185;45.642;13.764;2023-06-22T03:17:43;26.50;61.60
74657;DHT22;63185;45.642;13.764;2023-06-22T03:20:08;26.50;61.40
74657;DHT22;63185;45.642;13.764;2023-06-22T03:22:36;26.60;61.40
74657;DHT22;63185;45.642;13.764;2023-06-22T03:25:02;26.60;61.40
74657;DHT22;63185;45.642;13.764;2023-06-22T03:27:27;26.60;61.30
74657;DHT22;63185;45.642;13.764;2023-06-22T03:29:53;26.60;60.80
74657;DHT22;63185;45.642;13.764;2023-06-22T03:32:18;26.60;60.60
74657;DHT22;63185;45.642;13.764;2023-06-22T03:34:44;26.60;60.20
74657;DHT22;63185;45.642;13.764;2023-06-22T03:37:13;26.60;59.90
74657;DHT22;63185;45.642;13.764;2023-06-22T03:39:39;26.60;59.80
74657;DHT22;63185;45.642;13.764;2023-06-22T03:42:05;26.60;60.40
74657;DHT22;63185;45.642;13.764;2023-06-22T03:44:31;26.60;61.50
74657;DHT22;63185;45.642;13.764;2023-06-22T03:46:56;26.50;61.50
74657;DHT22;63185;45.642;13.764;2023-06-22T03:49:22;26.50;61.50
74657;DHT22;63185;45.642;13.764;2023-06-22T03:51:47;26.50;62.70
74657;DHT22;63185;45.642;13.764;2023-06-22T03:54:13;26.40;63.40
74657;DHT22;63185;45.642;13.764;2023-06-22T03:56:38;26.40;65.00
74657;DHT22;63185;45.642;13.764;2023-06-22T03:59:04;26.40;66.50
74657;DHT22;63185;45.642;13.764;2023-06-22T04:01:29;26.20;67.60
74657;DHT22;63185;45.642;13.764;2023-06-22T04:03:55;26.20;68.10
74657;DHT22;63185;45.642;13.764;2023-06-22T04:06:20;26.20;68.50
74657;DHT22;63185;45.642;13.764;2023-06-22T04:08:47;26.30;68.40
74657;DHT22;63185;45.642;13.764;2023-06-22T04:11:19;26.30;68.30
74657;DHT22;63185;45.642;13.764;2023-06-22T04:13:45;26.40;68.30
74657;DHT22;63185;45.642;13.764;2023-06-22T04:16:10;26.50;68.20
74657;DHT22;63185;45.642;13.764;2023-06-22T04:18:36;26.60;67.80
74657;DHT22;63185;45.642;13.764;2023-06-22T04:21:02;26.60;67.60
74657;DHT22;63185;45.642;13.764;2023-06-22T04:23:27;26.70;67.20
74657;DHT22;63185;45.642;13.764;2023-06-22T04:25:53;26.80;66.90
74657;DHT22;63185;45.642;13.764;2023-06-22T04:28:19;26.90;66.40
74657;DHT22;63185;45.642;13.764;2023-06-22T04:30:44;27.00;65.50
74657;DHT22;63185;45.642;13.764;2023-06-22T04:33:16;27.10;65.20
74657;DHT22;63185;45.642;13.764;2023-06-22T04:35:41;27.10;64.80
74657;DHT22;63185;45.642;13.764;2023-06-22T04:38:07;27.10;64.60
74657;DHT22;63185;45.642;13.764;2023-06-22T04:40:33;27.20;63.90
74657;DHT22;63185;45.642;13.764;2023-06-22T04:42:59;27.30;63.40
74657;DHT22;63185;45.642;13.764;2023-06-22T04:45:27;27.30;63.50
74657;DHT22;63185;45.642;13.764;2023-06-22T04:47:53;27.40;63.60
74657;DHT22;63185;45.642;13.764;2023-06-22T04:50:18;27.50;63.10
74657;DHT22;63185;45.642;13.764;2023-06-22T04:52:46;27.60;62.50
74657;DHT22;63185;45.642;13.764;2023-06-22T04:55:12;27.60;62.60
74657;DHT22;63185;45.642;13.764;2023-06-22T04:57:37;27.70;62.50
74657;DHT22;63185;45.642;13.764;2023-06-22T05:00:05;27.60;62.80
74657;DHT22;63185;45.642;13.764;2023-06-22T05:02:38;27.70;63.20
74657;DHT22;63185;45.642;13.764;2023-06-22T05:05:04;27.80;62.60
74657;DHT22;63185;45.642;13.764;2023-06-22T05:07:35;27.80;62.20
74657;DHT22;63185;45.642;13.764;2023-06-22T05:10:03;27.90;62.50
74657;DHT22;63185;45.642;13.764;2023-06-22T05:12:30;27.90;62.20
74657;DHT22;63185;45.642;13.764;2023-06-22T05:14:56;28.10;62.30
74657;DHT22;63185;45.642;13.764;2023-06-22T05:17:21;28.10;62.10
74657;DHT22;63185;45.642;13.764;2023-06-22T05:19:47;28.10;62.20
74657;DHT22;63185;45.642;13.764;2023-06-22T05:22:15;28.20;62.20
74657;DHT22;63185;45.642;13.764;2023-06-22T05:24:41;28.20;61.80
74657;DHT22;63185;45.642;13.764;2023-06-22T05:27:07;28.30;61.50
74657;DHT22;63185;45.642;13.764;2023-06-22T05:29:33;28.30;61.30
74657;DHT22;63185;45.642;13.764;2023-06-22T05:31:58;28.30;61.30
74657;DHT22;63185;45.642;13.764;2023-06-22T05:34:24;28.10;61.30
74657;DHT22;63185;45.642;13.764;2023-06-22T05:36:49;28.10;61.70
74657;DHT22;63185;45.642;13.764;2023-06-22T05:39:15;28.00;61.80
74657;DHT22;63185;45.642;13.764;2023-06-22T05:41:41;28.10;61.40
74657;DHT22;63185;45.642;13.764;2023-06-22T05:44:08;28.20;60.90
74657;DHT22;63185;45.642;13.764;2023-06-22T05:46:34;28.20;60.40
74657;DHT22;63185;45.642;13.764;2023-06-22T05:49:00;28.20;60.30
74657;DHT22;63185;45.642;13.764;2023-06-22T05:51:25;28.20;60.60
74657;DHT22;63185;45.642;13.764;2023-06-22T05:53:51;28.30;60.30
74657;DHT22;63185;45.642;13.764;2023-06-22T05:56:17;28.40;59.70
74657;DHT22;63185;45.642;13.764;2023-06-22T05:58:42;28.50;59.10
74657;DHT22;63185;45.642;13.764;2023-06-22T06:01:08;28.60;58.40
74657;DHT22;63185;45.642;13.764;2023-06-22T06:03:33;28.60;58.40
74657;DHT22;63185;45.642;13.764;2023-06-22T06:05:59;28.60;58.20
74657;DHT22;63185;45.642;13.764;2023-06-22T06:08:24;28.80;58.10
74657;DHT22;63185;45.642;13.764;2023-06-22T06:10:50;29.00;57.10
74657;DHT22;63185;45.642;13.764;2023-06-22T06:13:18;29.10;56.10
74657;DHT22;63185;45.642;13.764;2023-06-22T06:15:43;29.10;55.80
74657;DHT22;63185;45.642;13.764;2023-06-22T06:18:09;29.10;55.20
74657;DHT22;63185;45.642;13.764;2023-06-22T06:20:34;29.30;55.00
74657;DHT22;63185;45.642;13.764;2023-06-22T06:23:01;29.50;54.60
74657;DHT22;63185;45.642;13.764;2023-06-22T06:25:27;29.60;55.10
74657;DHT22;63185;45.642;13.764;2023-06-22T06:27:52;29.70;54.70
74657;DHT22;63185;45.642;13.764;2023-06-22T06:30:19;29.70;54.90
74657;DHT22;63185;45.642;13.764;2023-06-22T06:32:46;29.80;54.80
74657;DHT22;63185;45.642;13.764;2023-06-22T06:35:12;29.80;54.70
74657;DHT22;63185;45.642;13.764;2023-06-22T06:37:41;29.90;55.10
74657;DHT22;63185;45.642;13.764;2023-06-22T06:40:08;29.90;53.80
74657;DHT22;63185;45.642;13.764;2023-06-22T06:42:45;29.70;53.60
74657;DHT22;63185;45.642;13.764;2023-06-22T06:45:11;29.60;54.00
74657;DHT22;63185;45.642;13.764;2023-06-22T06:47:38;29.60;53.70
74657;DHT22;63185;45.642;13.764;2023-06-22T06:50:04;29.60;53.30
74657;DHT22;63185;45.642;13.764;2023-06-22T06:52:30;29.60;53.50
74657;DHT22;63185;45.642;13.764;2023-06-22T06:54:55;29.60;53.60
74657;DHT22;63185;45.642;13.764;2023-06-22T06:57:21;29.60;53.80
74657;DHT22;63185;45.642;13.764;2023-06-22T06:59:48;29.60;52.80
74657;DHT22;63185;45.642;13.764;2023-06-22T07:02:14;29.50;53.10
74657;DHT22;63185;45.642;13.764;2023-06-22T07:04:40;29.60;53.00
74657;DHT22;63185;45.642;13.764;2023-06-22T07:07:05;29.60;52.50
74657;DHT22;63185;45.642;13.764;2023-06-22T07:09:31;29.60;53.00
74657;DHT22;63185;45.642;13.764;2023-06-22T07:11:56;29.50;52.90
74657;DHT22;63185;45.642;13.764;2023-06-22T07:14:22;29.50;53.00
74657;DHT22;63185;45.642;13.764;2023-06-22T07:16:48;29.40;52.90
74657;DHT22;63185;45.642;13.764;2023-06-22T07:19:13;29.50;52.30
74657;DHT22;63185;45.642;13.764;2023-06-22T07:21:39;29.40;53.00
74657;DHT22;63185;45.642;13.764;2023-06-22T07:24:05;29.30;52.70
74657;DHT22;63185;45.642;13.764;2023-06-22T07:26:33;29.30;54.00
74657;DHT22;63185;45.642;13.764;2023-06-22T07:28:59;29.40;53.90
74657;DHT22;63185;45.642;13.764;2023-06-22T07:31:25;29.40;54.40
74657;DHT22;63185;45.642;13.764;2023-06-22T07:33:50;29.50;53.90
74657;DHT22;63185;45.642;13.764;2023-06-22T07:36:16;29.60;53.40
74657;DHT22;63185;45.642;13.764;2023-06-22T07:38:42;29.80;53.10
74657;DHT22;63185;45.642;13.764;2023-06-22T07:41:08;29.90;53.00
74657;DHT22;63185;45.642;13.764;2023-06-22T07:43:33;30.10;51.50
74657;DHT22;63185;45.642;13.764;2023-06-22T07:46:05;29.90;52.70
74657;DHT22;63185;45.642;13.764;2023-06-22T07:48:31;29.80;53.00
74657;DHT22;63185;45.642;13.764;2023-06-22T07:50:56;29.90;53.50
74657;DHT22;63185;45.642;13.764;2023-06-22T07:53:22;29.80;52.20
74657;DHT22;63185;45.642;13.764;2023-06-22T07:55:48;29.80;53.40
74657;DHT22;63185;45.642;13.764;2023-06-22T07:58:14;30.10;53.40
74657;DHT22;63185;45.642;13.764;2023-06-22T08:00:41;30.20;52.80
74657;DHT22;63185;45.642;13.764;2023-06-22T08:03:06;30.20;53.40
74657;DHT22;63185;45.642;13.764;2023-06-22T08:05:32;30.30;53.60
74657;DHT22;63185;45.642;13.764;2023-06-22T08:07:58;30.30;52.30
74657;DHT22;63185;45.642;13.764;2023-06-22T08:10:23;30.30;53.50
74657;DHT22;63185;45.642;13.764;2023-06-22T08:12:49;30.30;53.60
74657;DHT22;63185;45.642;13.764;2023-06-22T08:15:14;30.40;52.70
74657;DHT22;63185;45.642;13.764;2023-06-22T08:17:40;30.30;53.50
74657;DHT22;63185;45.642;13.764;2023-06-22T08:20:06;30.40;54.00
74657;DHT22;63185;45.642;13.764;2023-06-22T08:22:37;30.40;53.70
74657;DHT22;63185;45.642;13.764;2023-06-22T08:25:03;30.20;54.50
74657;DHT22;63185;45.642;13.764;2023-06-22T08:27:32;30.20;54.00
74657;DHT22;63185;45.642;13.764;2023-06-22T08:29:58;30.50;53.10
74657;DHT22;63185;45.642;13.764;2023-06-22T08:32:27;30.40;54.00
74657;DHT22;63185;45.642;13.764;2023-06-22T08:34:53;30.40;53.40
74657;DHT22;63185;45.642;13.764;2023-06-22T08:37:19;30.30;52.80
74657;DHT22;63185;45.642;13.764;2023-06-22T08:39:45;30.60;53.20
74657;DHT22;63185;45.642;13.764;2023-06-22T08:42:10;30.60;53.40
74657;DHT22;63185;45.642;13.764;2023-06-22T08:44:37;30.60;53.30
74657;DHT22;63185;45.642;13.764;2023-06-22T08:47:02;30.60;53.90
74657;DHT22;63185;45.642;13.764;2023-06-22T08:49:28;30.70;53.70
74657;DHT22;63185;45.642;13.764;2023-06-22T08:51:54;30.80;54.20
74657;DHT22;63185;45.642;13.764;2023-06-22T08:54:22;30.70;53.10
74657;DHT22;63185;45.642;13.764;2023-06-22T08:56:47;30.90;53.60
74657;DHT22;63185;45.642;13.764;2023-06-22T08:59:13;31.00;53.30
74657;DHT22;63185;45.642;13.764;2023-06-22T09:01:38;31.20;52.40
74657;DHT22;63185;45.642;13.764;2023-06-22T09:04:04;31.10;53.30
74657;DHT22;63185;45.642;13.764;2023-06-22T09:06:31;30.80;54.90
74657;DHT22;63185;45.642;13.764;2023-06-22T09:08:57;30.60;54.90
74657;DHT22;63185;45.642;13.764;2023-06-22T09:11:25;30.50;55.90
74657;DHT22;63185;45.642;13.764;2023-06-22T09:13:50;30.30;56.00
74657;DHT22;63185;45.642;13.764;2023-06-22T09:16:17;30.50;56.20
74657;DHT22;63185;45.642;13.764;2023-06-22T09:18:45;30.50;55.90
74657;DHT22;63185;45.642;13.764;2023-06-22T09:21:12;30.50;55.90
74657;DHT22;63185;45.642;13.764;2023-06-22T09:23:37;30.60;56.20
74657;DHT22;63185;45.642;13.764;2023-06-22T09:26:03;30.60;57.20
74657;DHT22;63185;45.642;13.764;2023-06-22T09:28:29;30.60;56.70
74657;DHT22;63185;45.642;13.764;2023-06-22T09:30:55;30.50;57.40
74657;DHT22;63185;45.642;13.764;2023-06-22T09:33:23;30.60;55.60
74657;DHT22;63185;45.642;13.764;2023-06-22T09:35:49;30.80;53.00
74657;DHT22;63185;45.642;13.764;2023-06-22T09:38:16;30.90;53.50
74657;DHT22;63185;45.642;13.764;2023-06-22T09:40:42;31.00;52.80
74657;DHT22;63185;45.642;13.764;2023-06-22T09:43:08;31.00;51.30
74657;DHT22;63185;45.642;13.764;2023-06-22T09:45:33;31.10;51.70
74657;DHT22;63185;45.642;13.764;2023-06-22T09:47:59;31.10;50.40
74657;DHT22;63185;45.642;13.764;2023-06-22T09:50:24;31.10;49.90
74657;DHT22;63185;45.642;13.764;2023-06-22T09:52:50;31.10;50.30
74657;DHT22;63185;45.642;13.764;2023-06-22T09:55:20;31.20;48.80
74657;DHT22;63185;45.642;13.764;2023-06-22T09:57:46;31.20;49.00
74657;DHT22;63185;45.642;13.764;2023-06-22T10:00:12;31.20;49.70
74657;DHT22;63185;45.642;13.764;2023-06-22T10:02:41;31.20;49.30
74657;DHT22;63185;45.642;13.764;2023-06-22T10:05:06;31.50;49.00
74657;DHT22;63185;45.642;13.764;2023-06-22T10:07:33;31.50;48.90
74657;DHT22;63185;45.642;13.764;2023-06-22T10:09:58;31.60;49.20
74657;DHT22;63185;45.642;13.764;2023-06-22T10:12:25;31.80;49.00
74657;DHT22;63185;45.642;13.764;2023-06-22T10:14:51;32.00;49.30
74657;DHT22;63185;45.642;13.764;2023-06-22T10:17:16;32.00;49.10
74657;DHT22;63185;45.642;13.764;2023-06-22T10:19:42;31.90;48.50
74657;DHT22;63185;45.642;13.764;2023-06-22T10:22:07;31.90;49.10
74657;DHT22;63185;45.642;13.764;2023-06-22T10:24:33;31.90;47.80
74657;DHT22;63185;45.642;13.764;2023-06-22T10:26:58;32.00;48.10
74657;DHT22;63185;45.642;13.764;2023-06-22T10:29:24;32.10;47.50
74657;DHT22;63185;45.642;13.764;2023-06-22T10:31:49;32.20;46.80
74657;DHT22;63185;45.642;13.764;2023-06-22T10:34:15;32.30;46.30
74657;DHT22;63185;45.642;13.764;2023-06-22T10:36:40;32.40;46.20
74657;DHT22;63185;45.642;13.764;2023-06-22T10:39:06;32.70;46.60
74657;DHT22;63185;45.642;13.764;2023-06-22T10:41:32;32.90;46.10
74657;DHT22;63185;45.642;13.764;2023-06-22T10:43:57;33.00;46.10
74657;DHT22;63185;45.642;13.764;2023-06-22T10:46:26;32.80;45.40
74657;DHT22;63185;45.642;13.764;2023-06-22T10:48:53;32.70;47.80
74657;DHT22;63185;45.642;13.764;2023-06-22T10:51:20;32.80;45.70
74657;DHT22;63185;45.642;13.764;2023-06-22T10:53:46;32.80;46.50
74657;DHT22;63185;45.642;13.764;2023-06-22T10:56:11;33.00;46.40
74657;DHT22;63185;45.642;13.764;2023-06-22T10:58:37;33.10;45.50
74657;DHT22;63185;45.642;13.764;2023-06-22T11:01:02;33.10;45.00
74657;DHT22;63185;45.642;13.764;2023-06-22T11:03:28;33.20;46.20
74657;DHT22;63185;45.642;13.764;2023-06-22T11:05:54;33.10;45.10
74657;DHT22;63185;45.642;13.764;2023-06-22T11:08:19;32.80;45.30
74657;DHT22;63185;45.642;13.764;2023-06-22T11:10:45;32.60;46.10
74657;DHT22;63185;45.642;13.764;2023-06-22T11:13:10;32.70;46.70
74657;DHT22;63185;45.642;13.764;2023-06-22T11:15:36;32.30;47.00
74657;DHT22;63185;45.642;13.764;2023-06-22T11:18:02;32.20;47.50
74657;DHT22;63185;45.642;13.764;2023-06-22T11:20:27;32.40;47.60
74657;DHT22;63185;45.642;13.764;2023-06-22T11:22:53;32.60;46.50
74657;DHT22;63185;45.642;13.764;2023-06-22T11:25:18;32.50;46.90
74657;DHT22;63185;45.642;13.764;2023-06-22T11:27:44;32.50;46.40
74657;DHT22;63185;45.642;13.764;2023-06-22T11:30:10;32.50;46.20
74657;DHT22;63185;45.642;13.764;2023-06-22T11:32:35;32.60;46.10
74657;DHT22;63185;45.642;13.764;2023-06-22T11:35:01;32.80;46.50
74657;DHT22;63185;45.642;13.764;2023-06-22T11:37:27;32.90;45.60
74657;DHT22;63185;45.642;13.764;2023-06-22T11:39:52;32.80;45.80
74657;DHT22;63185;45.642;13.764;2023-06-22T11:42:20;32.80;46.30
74657;DHT22;63185;45.642;13.764;2023-06-22T11:44:45;32.80;46.30
74657;DHT22;63185;45.642;13.764;2023-06-22T11:47:11;33.10;46.70
74657;DHT22;63185;45.642;13.764;2023-06-22T11:49:36;33.20;45.60
74657;DHT22;63185;45.642;13.764;2023-06-22T11:52:02;33.20;45.80
74657;DHT22;63185;45.642;13.764;2023-06-22T11:54:28;33.10;46.70
74657;DHT22;63185;45.642;13.764;2023-06-22T11:56:53;33.20;46.50
74657;DHT22;63185;45.642;13.764;2023-06-22T11:59:19;33.00;46.40
74657;DHT22;63185;45.642;13.764;2023-06-22T12:01:44;33.10;46.60
74657;DHT22;63185;45.642;13.764;2023-06-22T12:04:10;33.10;46.40
74657;DHT22;63185;45.642;13.764;2023-06-22T12:06:37;33.30;46.80
74657;DHT22;63185;45.642;13.764;2023-06-22T12:09:03;33.30;46.10
74657;DHT22;63185;45.642;13.764;2023-06-22T12:11:30;33.20;45.00
74657;DHT22;63185;45.642;13.764;2023-06-22T12:13:55;33.10;44.50
74657;DHT22;63185;45.642;13.764;2023-06-22T12:16:21;32.80;45.30
74657;DHT22;63185;45.642;13.764;2023-06-22T12:18:47;32.80;44.50
74657;DHT22;63185;45.642;13.764;2023-06-22T12:21:12;32.80;45.30
74657;DHT22;63185;45.642;13.764;2023-06-22T12:23:38;32.80;45.60
74657;DHT22;63185;45.642;13.764;2023-06-22T12:26:03;32.70;46.20
74657;DHT22;63185;45.642;13.764;2023-06-22T12:28:29;32.50;46.50
74657;DHT22;63185;45.642;13.764;2023-06-22T12:30:54;32.70;47.20
74657;DHT22;63185;45.642;13.764;2023-06-22T12:33:20;32.70;46.70
74657;DHT22;63185;45.642;13.764;2023-06-22T12:35:46;32.60;47.90
74657;DHT22;63185;45.642;13.764;2023-06-22T12:38:14;32.60;48.00
74657;DHT22;63185;45.642;13.764;2023-06-22T12:40:39;32.90;45.70
74657;DHT22;63185;45.642;13.764;2023-06-22T12:43:05;32.90;45.40
74657;DHT22;63185;45.642;13.764;2023-06-22T12:45:31;33.00;46.50
74657;DHT22;63185;45.642;13.764;2023-06-22T12:47:58;33.10;48.00
74657;DHT22;63185;45.642;13.764;2023-06-22T12:50:25;33.20;47.20
74657;DHT22;63185;45.642;13.764;2023-06-22T12:52:50;33.30;46.60
74657;DHT22;63185;45.642;13.764;2023-06-22T12:55:16;33.10;45.90
74657;DHT22;63185;45.642;13.764;2023-06-22T12:57:41;33.10;47.50
74657;DHT22;63185;45.642;13.764;2023-06-22T13:00:07;33.20;47.20
74657;DHT22;63185;45.642;13.764;2023-06-22T13:02:35;33.30;47.70
74657;DHT22;63185;45.642;13.764;2023-06-22T13:05:01;33.40;47.70
74657;DHT22;63185;45.642;13.764;2023-06-22T13:07:26;33.40;47.70
74657;DHT22;63185;45.642;13.764;2023-06-22T13:09:52;33.40;47.80
74657;DHT22;63185;45.642;13.764;2023-06-22T13:12:18;33.30;48.70
74657;DHT22;63185;45.642;13.764;2023-06-22T13:14:45;33.50;49.10
74657;DHT22;63185;45.642;13.764;2023-06-22T13:17:12;33.50;49.80
74657;DHT22;63185;45.642;13.764;2023-06-22T13:19:38;33.50;49.60
74657;DHT22;63185;45.642;13.764;2023-06-22T13:22:03;33.60;49.80
74657;DHT22;63185;45.642;13.764;2023-06-22T13:24:29;33.60;50.40
74657;DHT22;63185;45.642;13.764;2023-06-22T13:26:54;33.60;50.70
74657;DHT22;63185;45.642;13.764;2023-06-22T13:29:20;33.80;49.50
74657;DHT22;63185;45.642;13.764;2023-06-22T13:31:46;33.60;49.30
74657;DHT22;63185;45.642;13.764;2023-06-22T13:34:11;33.60;48.90
74657;DHT22;63185;45.642;13.764;2023-06-22T13:36:37;33.60;50.20
74657;DHT22;63185;45.642;13.764;2023-06-22T13:39:03;33.60;49.20
74657;DHT22;63185;45.642;13.764;2023-06-22T13:41:29;33.60;50.10
74657;DHT22;63185;45.642;13.764;2023-06-22T13:43:54;33.80;49.20
74657;DHT22;63185;45.642;13.764;2023-06-22T13:46:20;33.70;49.50
74657;DHT22;63185;45.642;13.764;2023-06-22T13:48:45;33.70;48.30
74657;DHT22;63185;45.642;13.764;2023-06-22T13:51:11;33.70;48.80
74657;DHT22;63185;45.642;13.764;2023-06-22T13:53:36;33.80;47.10
74657;DHT22;63185;45.642;13.764;2023-06-22T13:56:02;33.90;47.20
74657;DHT22;63185;45.642;13.764;2023-06-22T13:58:28;34.10;45.60
74657;DHT22;63185;45.642;13.764;2023-06-22T14:00:53;34.10;44.30
74657;DHT22;63185;45.642;13.764;2023-06-22T14:03:19;33.90;46.20
74657;DHT22;63185;45.642;13.764;2023-06-22T14:05:44;33.90;46.50
74657;DHT22;63185;45.642;13.764;2023-06-22T14:08:11;33.80;43.00
74657;DHT22;63185;45.642;13.764;2023-06-22T14:10:37;34.00;46.10
74657;DHT22;63185;45.642;13.764;2023-06-22T14:13:02;34.10;44.60
74657;DHT22;63185;45.642;13.764;2023-06-22T14:15:31;34.00;46.90
74657;DHT22;63185;45.642;13.764;2023-06-22T14:17:56;34.00;46.90
74657;DHT22;63185;45.642;13.764;2023-06-22T14:20:22;33.90;47.80
74657;DHT22;63185;45.642;13.764;2023-06-22T14:22:48;33.90;46.00
74657;DHT22;63185;45.642;13.764;2023-06-22T14:25:13;33.90;46.50
74657;DHT22;63185;45.642;13.764;2023-06-22T14:27:39;34.10;46.90
74657;DHT22;63185;45.642;13.764;2023-06-22T14:30:04;34.30;44.70
74657;DHT22;63185;45.642;13.764;2023-06-22T14:32:30;34.50;44.50
74657;DHT22;63185;45.642;13.764;2023-06-22T14:34:56;34.60;44.80
74657;DHT22;63185;45.642;13.764;2023-06-22T14:37:21;34.60;43.70
74657;DHT22;63185;45.642;13.764;2023-06-22T14:39:47;34.50;42.30
74657;DHT22;63185;45.642;13.764;2023-06-22T14:42:12;34.20;44.40
74657;DHT22;63185;45.642;13.764;2023-06-22T14:44:38;34.10;45.40
74657;DHT22;63185;45.642;13.764;2023-06-22T14:47:03;34.10;43.60
74657;DHT22;63185;45.642;13.764;2023-06-22T14:49:29;34.10;43.80
74657;DHT22;63185;45.642;13.764;2023-06-22T14:51:55;34.20;43.10
74657;DHT22;63185;45.642;13.764;2023-06-22T14:54:21;34.30;42.80
74657;DHT22;63185;45.642;13.764;2023-06-22T14:56:47;34.90;37.50
74657;DHT22;63185;45.642;13.764;2023-06-22T14:59:12;34.90;38.20
74657;DHT22;63185;45.642;13.764;2023-06-22T15:01:39;34.70;39.40
74657;DHT22;63185;45.642;13.764;2023-06-22T15:04:04;35.10;37.90
74657;DHT22;63185;45.642;13.764;2023-06-22T15:06:30;35.50;40.30
74657;DHT22;63185;45.642;13.764;2023-06-22T15:08:55;35.80;35.80
74657;DHT22;63185;45.642;13.764;2023-06-22T15:11:21;35.80;37.20
74657;DHT22;63185;45.642;13.764;2023-06-22T15:13:46;35.90;37.90
74657;DHT22;63185;45.642;13.764;2023-06-22T15:16:12;36.00;36.50